createdAt,value
2022-11-17T00:02:13.675Z,98639.50
2022-11-17T00:04:40.171Z,98630.56
2022-11-17T00:07:06.648Z,98630.81
2022-11-17T00:09:33.022Z,98620.00
2022-11-17T00:12:22.335Z,98613.88
2022-11-17T00:14:49.055Z,98613.03
2022-11-17T00:17:15.334Z,98603.63
2022-11-17T00:20:00.390Z,98595.31
2022-11-17T00:22:26.711Z,98590.72
2022-11-17T00:24:52.944Z,98586.97
2022-11-17T00:27:19.187Z,98579.19
2022-11-17T00:29:45.467Z,98577.31
2022-11-17T00:32:51.278Z,98574.72
2022-11-17T00:35:17.535Z,98567.19
2022-11-17T00:38:02.277Z,98566.13
2022-11-17T00:40:28.552Z,98553.44
2022-11-17T00:42:54.823Z,98552.59
2022-11-17T00:45:21.091Z,98540.72
2022-11-17T00:47:47.635Z,98536.72
2022-11-17T00:50:14.017Z,98529.16
2022-11-17T00:52:40.281Z,98523.75
2022-11-17T00:55:06.934Z,98525.38
2022-11-17T00:57:33.197Z,98523.28
2022-11-17T00:59:59.795Z,98515.16
2022-11-17T01:02:26.044Z,98504.59
2022-11-17T01:04:52.295Z,98517.78
2022-11-17T01:07:18.636Z,98509.69
2022-11-17T01:09:44.880Z,98499.91
2022-11-17T01:12:11.132Z,98507.69
2022-11-17T01:14:37.358Z,98495.47
2022-11-17T01:17:03.627Z,98489.25
2022-11-17T01:19:29.901Z,98493.28
2022-11-17T01:21:56.219Z,98490.81
2022-11-17T01:24:22.529Z,98482.47
2022-11-17T01:26:51.605Z,98480.00
2022-11-17T01:29:17.976Z,98475.38
2022-11-17T01:31:45.015Z,98467.38
2022-11-17T01:34:11.480Z,98461.97
2022-11-17T01:36:58.185Z,98468.19
2022-11-17T01:39:25.094Z,98461.50
2022-11-17T01:41:51.941Z,98465.59
2022-11-17T01:44:36.996Z,98438.59
2022-11-17T01:47:13.270Z,98446.47
2022-11-17T01:49:39.663Z,98441.16
2022-11-17T01:52:07.604Z,98434.44
2022-11-17T01:54:36.248Z,98436.06
2022-11-17T01:57:31.968Z,98411.47
2022-11-17T02:00:04.258Z,98408.28
2022-11-17T02:02:30.615Z,98405.94
2022-11-17T02:05:02.614Z,98411.34
2022-11-17T02:07:31.646Z,98400.81
2022-11-17T02:09:59.280Z,98407.91
2022-11-17T02:12:26.626Z,98406.47
2022-11-17T02:14:53.671Z,98399.44
2022-11-17T02:17:21.475Z,98393.13
2022-11-17T02:19:55.525Z,98386.34
2022-11-17T02:22:40.827Z,98387.06
2022-11-17T02:25:07.076Z,98383.53
2022-11-17T02:27:52.167Z,98375.44
2022-11-17T02:30:19.711Z,98368.06
2022-11-17T02:33:02.405Z,98368.38
2022-11-17T02:35:47.331Z,98364.84
2022-11-17T02:38:35.277Z,98362.97
2022-11-17T02:41:01.591Z,98358.66
2022-11-17T02:43:49.786Z,98342.97
2022-11-17T02:46:20.542Z,98350.28
2022-11-17T02:48:53.199Z,98342.97
2022-11-17T02:51:21.363Z,98332.41
2022-11-17T02:53:48.870Z,98334.56
2022-11-17T02:56:15.099Z,98325.59
2022-11-17T02:58:41.449Z,98328.06
2022-11-17T03:01:07.807Z,98329.44
2022-11-17T03:03:52.651Z,98336.19
2022-11-17T03:06:37.842Z,98320.53
2022-11-17T03:09:15.322Z,98334.06
2022-11-17T03:11:49.996Z,98333.78
2022-11-17T03:14:27.735Z,98314.06
2022-11-17T03:17:01.711Z,98320.53
2022-11-17T03:19:32.055Z,98323.78
2022-11-17T03:22:17.187Z,98320.53
2022-11-17T03:24:47.295Z,98311.34
2022-11-17T03:27:25.421Z,98313.47
2022-11-17T03:29:53.636Z,98299.69
2022-11-17T03:32:21.600Z,98305.59
2022-11-17T03:34:58.584Z,98293.16
2022-11-17T03:37:26.890Z,98281.22
2022-11-17T03:39:55.192Z,98269.50
2022-11-17T03:42:24.125Z,98273.19
2022-11-17T03:44:53.567Z,98260.41
2022-11-17T03:47:21.415Z,98268.19
2022-11-17T03:49:54.641Z,98256.22
2022-11-17T03:52:21.506Z,98252.13
2022-11-17T03:54:48.067Z,98256.69
2022-11-17T03:57:16.965Z,98248.59
2022-11-17T03:59:55.287Z,98251.53
2022-11-17T04:02:22.235Z,98238.28
2022-11-17T04:05:06.606Z,98240.19
2022-11-17T04:07:40.375Z,98250.16
2022-11-17T04:10:07.708Z,98242.03
2022-11-17T04:12:52.475Z,98241.22
2022-11-17T04:15:37.325Z,98232.81
2022-11-17T04:18:04.053Z,98230.59
2022-11-17T04:20:35.991Z,98234.13
2022-11-17T04:23:09.414Z,98237.63
2022-11-17T04:25:55.265Z,98233.28
2022-11-17T04:28:36.865Z,98237.88
2022-11-17T04:31:10.926Z,98243.63
2022-11-17T04:33:38.161Z,98242.53
2022-11-17T04:36:05.262Z,98223.72
2022-11-17T04:38:31.668Z,98222.38
2022-11-17T04:41:24.131Z,98224.00
2022-11-17T04:43:50.478Z,98211.09
2022-11-17T04:46:17.296Z,98205.94
2022-11-17T04:48:43.828Z,98206.00
2022-11-17T04:51:10.174Z,98217.75
2022-11-17T04:53:36.642Z,98209.38
2022-11-17T04:56:03.690Z,98199.69
2022-11-17T04:58:30.307Z,98202.94
2022-11-17T05:01:12.102Z,98201.91
2022-11-17T05:03:42.440Z,98202.19
2022-11-17T05:06:15.774Z,98199.25
2022-11-17T05:08:42.670Z,98196.06
2022-11-17T05:11:28.691Z,98190.41
2022-11-17T05:13:55.306Z,98202.03
2022-11-17T05:16:40.650Z,98192.34
2022-11-17T05:19:08.344Z,98198.56
2022-11-17T05:21:35.032Z,98198.56
2022-11-17T05:24:01.330Z,98199.38
2022-11-17T05:26:29.214Z,98190.78
2022-11-17T05:28:56.259Z,98191.84
2022-11-17T05:31:23.065Z,98192.91
2022-11-17T05:33:49.960Z,98196.13
2022-11-17T05:36:16.350Z,98190.66
2022-11-17T05:38:42.696Z,98187.09
2022-11-17T05:41:09.162Z,98188.44
2022-11-17T05:43:35.766Z,98190.00
2022-11-17T05:46:02.387Z,98193.53
2022-11-17T05:48:28.729Z,98196.50
2022-11-17T05:50:56.027Z,98196.25
2022-11-17T05:53:23.247Z,98193.78
2022-11-17T05:55:49.933Z,98200.84
2022-11-17T05:58:19.566Z,98198.13
2022-11-17T06:00:45.952Z,98194.94
2022-11-17T06:03:20.116Z,98208.94
2022-11-17T06:05:46.639Z,98216.47
2022-11-17T06:08:12.981Z,98205.16
2022-11-17T06:10:39.316Z,98202.78
2022-11-17T06:13:05.703Z,98213.59
2022-11-17T06:15:32.168Z,98207.44
2022-11-17T06:18:04.534Z,98208.50
2022-11-17T06:20:35.528Z,98211.78
2022-11-17T06:23:03.232Z,98216.09
2022-11-17T06:25:29.773Z,98225.88
2022-11-17T06:27:56.958Z,98221.59
2022-11-17T06:30:23.252Z,98260.00
2022-11-17T06:32:50.043Z,98255.69
2022-11-17T06:35:17.016Z,98250.84
2022-11-17T06:37:43.611Z,98249.78
2022-11-17T06:40:10.268Z,98248.16
2022-11-17T06:42:57.222Z,98248.69
2022-11-17T06:45:24.082Z,98254.09
2022-11-17T06:47:52.547Z,98261.44
2022-11-17T06:50:19.008Z,98254.09
2022-11-17T06:52:45.362Z,98259.03
2022-11-17T06:55:11.689Z,98264.44
2022-11-17T06:57:38.038Z,98272.06
2022-11-17T07:00:05.929Z,98270.72
2022-11-17T07:02:32.532Z,98279.97
2022-11-17T07:04:58.876Z,98272.13
2022-11-17T07:07:28.355Z,98269.44
2022-11-17T07:09:54.772Z,98261.31
2022-11-17T07:12:21.491Z,98265.06
2022-11-17T07:14:47.825Z,98263.09
2022-11-17T07:17:14.161Z,98270.41
2022-11-17T07:19:40.493Z,98273.94
2022-11-17T07:22:07.015Z,98270.97
2022-11-17T07:24:33.361Z,98268.75
2022-11-17T07:26:59.720Z,98277.72
2022-11-17T07:29:26.061Z,98280.41
2022-11-17T07:31:52.561Z,98279.09
2022-11-17T07:34:18.974Z,98292.63
2022-11-17T07:36:45.302Z,98302.63
2022-11-17T07:39:14.943Z,98301.91
2022-11-17T07:41:43.481Z,98308.94
2022-11-17T07:44:10.526Z,98307.59
2022-11-17T07:46:36.867Z,98325.16
2022-11-17T07:49:03.188Z,98320.84
2022-11-17T07:51:29.555Z,98325.97
2022-11-17T07:53:55.862Z,98340.31
2022-11-17T07:56:22.350Z,98340.31
2022-11-17T07:58:48.658Z,98335.50
2022-11-17T08:01:18.028Z,98346.06
2022-11-17T08:03:44.541Z,98345.56
2022-11-17T08:06:11.226Z,98346.38
2022-11-17T08:08:38.619Z,98345.88
2022-11-17T08:11:06.887Z,98353.25
2022-11-17T08:13:33.409Z,98355.22
2022-11-17T08:16:00.118Z,98363.38
2022-11-17T08:18:26.565Z,98365.84
2022-11-17T08:20:52.942Z,98368.63
2022-11-17T08:23:19.425Z,98366.22
2022-11-17T08:25:45.793Z,98370.25
2022-11-17T08:28:12.114Z,98375.19
2022-11-17T08:30:38.667Z,98377.31
2022-11-17T08:33:04.997Z,98379.75
2022-11-17T08:35:37.134Z,98384.69
2022-11-17T08:38:04.345Z,98383.38
2022-11-17T08:40:30.810Z,98379.91
2022-11-17T08:43:01.180Z,98381.56
2022-11-17T08:45:28.216Z,98376.78
2022-11-17T08:47:55.585Z,98375.53
2022-11-17T08:50:23.742Z,98376.41
2022-11-17T08:52:51.433Z,98379.66
2022-11-17T08:55:17.880Z,98382.13
2022-11-17T08:57:44.466Z,98382.44
2022-11-17T09:00:11.046Z,98397.38
2022-11-17T09:02:38.289Z,98396.28
2022-11-17T09:05:05.213Z,98398.19
2022-11-17T09:07:35.524Z,98397.44
2022-11-17T09:10:01.969Z,98402.59
2022-11-17T09:12:28.300Z,98404.25
2022-11-17T09:14:54.625Z,98411.13
2022-11-17T09:17:20.958Z,98401.72
2022-11-17T09:19:47.294Z,98411.81
2022-11-17T09:22:13.598Z,98418.59
2022-11-17T09:24:40.098Z,98418.59
2022-11-17T09:27:06.505Z,98424.66
2022-11-17T09:29:32.822Z,98426.91
2022-11-17T09:31:59.145Z,98425.91
2022-11-17T09:34:25.560Z,98430.31
2022-11-17T09:36:52.058Z,98439.56
2022-11-17T09:39:18.386Z,98440.06
2022-11-17T09:41:52.434Z,98442.78
2022-11-17T09:44:18.800Z,98440.34
2022-11-17T09:47:04.122Z,98442.28
2022-11-17T09:49:30.416Z,98452.16
2022-11-17T09:52:00.227Z,98453.78
2022-11-17T09:54:30.144Z,98455.44
2022-11-17T09:56:57.850Z,98457.91
2022-11-17T09:59:25.305Z,98460.59
2022-11-17T10:01:54.770Z,98461.16
2022-11-17T10:04:21.167Z,98466.31
2022-11-17T10:06:50.451Z,98474.47
2022-11-17T10:09:20.996Z,98477.19
2022-11-17T10:11:50.500Z,98480.34
2022-11-17T10:14:18.621Z,98481.38
2022-11-17T10:16:50.183Z,98482.63
2022-11-17T10:19:18.054Z,98481.53
2022-11-17T10:21:45.215Z,98489.44
2022-11-17T10:24:11.577Z,98487.81
2022-11-17T10:26:45.746Z,98495.09
2022-11-17T10:29:13.976Z,98492.72
2022-11-17T10:31:44.599Z,98496.81
2022-11-17T10:34:12.228Z,98506.09
2022-11-17T10:36:44.962Z,98503.09
2022-11-17T10:39:31.261Z,98507.47
2022-11-17T10:41:57.569Z,98514.03
2022-11-17T10:44:29.973Z,98508.59
2022-11-17T10:47:02.821Z,98514.06
2022-11-17T10:49:32.563Z,98503.50
2022-11-17T10:52:11.065Z,98508.63
2022-11-17T10:54:37.945Z,98505.41
2022-11-17T10:57:09.452Z,98517.94
2022-11-17T10:59:43.805Z,98512.00
2022-11-17T11:02:30.126Z,98504.91
2022-11-17T11:05:08.862Z,98517.09
2022-11-17T11:07:35.951Z,98510.16
2022-11-17T11:10:14.713Z,98514.81
2022-11-17T11:12:59.917Z,98514.25
2022-11-17T11:15:30.415Z,98529.41
2022-11-17T11:17:56.889Z,98522.03
2022-11-17T11:20:42.462Z,98515.50
2022-11-17T11:23:30.795Z,98523.41
2022-11-17T11:26:06.797Z,98529.31
2022-11-17T11:28:33.097Z,98537.28
2022-11-17T11:31:11.434Z,98548.44
2022-11-17T11:33:43.127Z,98539.53
2022-11-17T11:36:18.714Z,98548.53
2022-11-17T11:38:52.014Z,98544.56
2022-11-17T11:41:37.319Z,98544.88
2022-11-17T11:44:09.523Z,98549.25
2022-11-17T11:46:35.822Z,98551.16
2022-11-17T11:49:11.681Z,98549.75
2022-11-17T11:51:38.837Z,98547.25
2022-11-17T11:54:08.820Z,98552.84
2022-11-17T11:56:40.394Z,98553.41
2022-11-17T11:59:11.158Z,98551.25
2022-11-17T12:01:47.456Z,98551.31
2022-11-17T12:04:14.225Z,98541.59
2022-11-17T12:06:53.549Z,98543.78
2022-11-17T12:09:44.768Z,98543.22
2022-11-17T12:12:15.703Z,98542.50
2022-11-17T12:15:02.024Z,98550.66
2022-11-17T12:17:28.507Z,98546.63
2022-11-17T12:19:55.143Z,98541.78
2022-11-17T12:22:21.603Z,98551.66
2022-11-17T12:24:47.970Z,98545.22
2022-11-17T12:27:33.266Z,98546.59
2022-11-17T12:29:59.910Z,98558.28
2022-11-17T12:32:44.857Z,98552.84
2022-11-17T12:35:25.227Z,98560.00
2022-11-17T12:38:12.267Z,98560.59
2022-11-17T12:40:38.601Z,98554.97
2022-11-17T12:43:20.188Z,98560.69
2022-11-17T12:45:53.391Z,98554.72
2022-11-17T12:48:34.068Z,98557.75
2022-11-17T12:51:19.306Z,98553.16
2022-11-17T12:53:54.182Z,98553.75
2022-11-17T12:56:37.110Z,98558.75
2022-11-17T12:59:24.651Z,98558.78
2022-11-17T13:02:09.762Z,98568.00
2022-11-17T13:04:43.813Z,98564.19
2022-11-17T13:07:20.321Z,98567.41
2022-11-17T13:09:54.374Z,98567.34
2022-11-17T13:12:21.704Z,98566.94
2022-11-17T13:14:58.948Z,98572.03
2022-11-17T13:17:30.562Z,98573.31
2022-11-17T13:19:59.912Z,98574.34
2022-11-17T13:22:26.365Z,98578.47
2022-11-17T13:24:53.836Z,98570.06
2022-11-17T13:27:22.135Z,98573.13
2022-11-17T13:29:48.821Z,98579.09
2022-11-17T13:32:16.800Z,98582.66
2022-11-17T13:35:01.617Z,98576.97
2022-11-17T13:37:28.768Z,98579.69
2022-11-17T13:40:02.723Z,98580.84
2022-11-17T13:42:33.036Z,98568.38
2022-11-17T13:45:05.080Z,98578.72
2022-11-17T13:47:37.404Z,98578.13
2022-11-17T13:50:22.652Z,98569.13
2022-11-17T13:52:53.808Z,98576.47
2022-11-17T13:55:20.758Z,98580.53
2022-11-17T13:57:54.824Z,98571.53
2022-11-17T14:00:21.362Z,98570.75
2022-11-17T14:02:54.926Z,98565.81
2022-11-17T14:05:23.358Z,98572.09
2022-11-17T14:07:50.837Z,98563.38
2022-11-17T14:10:20.230Z,98576.94
2022-11-17T14:12:50.289Z,98572.28
2022-11-17T14:15:24.586Z,98592.84
2022-11-17T14:17:51.969Z,98586.88
2022-11-17T14:20:24.285Z,98592.56
2022-11-17T14:23:01.500Z,98594.97
2022-11-17T14:25:28.528Z,98592.81
2022-11-17T14:27:54.981Z,98596.38
2022-11-17T14:30:21.466Z,98598.75
2022-11-17T14:32:48.317Z,98605.53
2022-11-17T14:35:15.167Z,98593.00
2022-11-17T14:37:42.070Z,98600.63
2022-11-17T14:40:20.426Z,98588.88
2022-11-17T14:42:46.782Z,98589.16
2022-11-17T14:45:16.840Z,98598.34
2022-11-17T14:47:43.653Z,98600.41
2022-11-17T14:50:12.900Z,98604.22
2022-11-17T14:52:41.004Z,98597.16
2022-11-17T14:55:07.931Z,98598.75
2022-11-17T14:57:34.283Z,98604.69
2022-11-17T15:00:00.750Z,98603.53
2022-11-17T15:02:27.089Z,98610.31
2022-11-17T15:04:53.957Z,98624.38
2022-11-17T15:07:20.692Z,98621.91
2022-11-17T15:09:47.046Z,98612.16
2022-11-17T15:12:13.399Z,98617.00
2022-11-17T15:14:39.767Z,98616.75
2022-11-17T15:17:09.854Z,98619.72
2022-11-17T15:19:39.350Z,98621.88
2022-11-17T15:22:05.649Z,98620.78
2022-11-17T15:24:32.001Z,98621.63
2022-11-17T15:26:58.348Z,98636.50
2022-11-17T15:29:24.770Z,98633.25
2022-11-17T15:31:51.086Z,98633.50
2022-11-17T15:34:20.406Z,98639.09
2022-11-17T15:36:47.460Z,98646.44
2022-11-17T15:39:14.418Z,98639.38
2022-11-17T15:41:41.225Z,98641.75
2022-11-17T15:44:07.833Z,98640.63
2022-11-17T15:46:34.168Z,98644.13
2022-11-17T15:49:00.548Z,98641.13
2022-11-17T15:51:27.409Z,98648.63
2022-11-17T15:53:56.490Z,98644.22
2022-11-17T15:56:23.774Z,98647.38
2022-11-17T15:58:57.289Z,98648.63
2022-11-17T16:01:23.603Z,98660.78
2022-11-17T16:03:50.086Z,98665.03
2022-11-17T16:06:16.463Z,98664.72
2022-11-17T16:08:43.031Z,98661.19
2022-11-17T16:11:10.022Z,98674.19
2022-11-17T16:13:36.737Z,98666.56
2022-11-17T16:16:03.518Z,98677.91
2022-11-17T16:18:32.514Z,98677.31
2022-11-17T16:21:04.943Z,98678.94
2022-11-17T16:23:36.758Z,98677.31
2022-11-17T16:26:03.110Z,98684.31
2022-11-17T16:28:29.474Z,98688.34
2022-11-17T16:30:55.790Z,98695.03
2022-11-17T16:33:22.141Z,98695.03
2022-11-17T16:35:48.541Z,98696.22
2022-11-17T16:38:16.123Z,98670.88
2022-11-17T16:40:42.836Z,98698.00
2022-11-17T16:43:10.977Z,98708.28
2022-11-17T16:45:41.879Z,98709.13
2022-11-17T16:48:09.055Z,98707.16
2022-11-17T16:50:38.785Z,98705.47
2022-11-17T16:53:05.123Z,98703.84
2022-11-17T16:55:35.198Z,98714.09
2022-11-17T16:58:02.430Z,98706.72
2022-11-17T17:00:28.798Z,98710.63
2022-11-17T17:02:56.997Z,98710.03
2022-11-17T17:05:24.362Z,98707.03
2022-11-17T17:07:51.089Z,98699.38
2022-11-17T17:10:17.484Z,98702.09
2022-11-17T17:12:43.876Z,98700.09
2022-11-17T17:15:10.509Z,98694.81
2022-11-17T17:17:36.838Z,98701.91
2022-11-17T17:20:03.217Z,98685.38
2022-11-17T17:22:29.602Z,98707.31
2022-11-17T17:24:55.995Z,98705.75
2022-11-17T17:27:22.321Z,98707.66
2022-11-17T17:29:48.746Z,98713.22
2022-11-17T17:32:15.163Z,98718.88
2022-11-17T17:34:42.606Z,98713.72
2022-11-17T17:37:08.938Z,98717.81
2022-11-17T17:39:35.385Z,98728.66
2022-11-17T17:42:01.728Z,98724.91
2022-11-17T17:44:28.069Z,98729.47
2022-11-17T17:46:57.019Z,98731.59
2022-11-17T17:49:23.337Z,98729.13
2022-11-17T17:51:49.722Z,98733.41
2022-11-17T17:54:17.888Z,98732.25
2022-11-17T17:56:44.605Z,98738.50
2022-11-17T17:59:10.968Z,98738.13
2022-11-17T18:01:37.492Z,98742.47
2022-11-17T18:04:10.077Z,98746.03
2022-11-17T18:06:40.606Z,98744.03
2022-11-17T18:09:07.727Z,98747.81
2022-11-17T18:11:35.523Z,98757.25
2022-11-17T18:14:01.937Z,98761.00
2022-11-17T18:16:29.634Z,98757.81
2022-11-17T18:18:57.799Z,98758.88
2022-11-17T18:21:24.157Z,98758.28
2022-11-17T18:23:51.888Z,98770.19
2022-11-17T18:26:19.647Z,98764.53
2022-11-17T18:28:50.373Z,98772.91
2022-11-17T18:31:16.694Z,98771.59
2022-11-17T18:33:45.223Z,98769.50
2022-11-17T18:36:11.873Z,98762.72
2022-11-17T18:38:38.720Z,98767.28
2022-11-17T18:41:09.481Z,98771.53
2022-11-17T18:43:36.221Z,98774.72
2022-11-17T18:46:22.801Z,98772.84
2022-11-17T18:48:51.502Z,98789.19
2022-11-17T18:51:20.617Z,98788.25
2022-11-17T18:53:48.417Z,98787.19
2022-11-17T18:56:15.842Z,98798.25
2022-11-17T18:58:42.722Z,98804.50
2022-11-17T19:01:11.168Z,98802.88
2022-11-17T19:03:38.437Z,98794.97
2022-11-17T19:06:05.585Z,98792.75
2022-11-17T19:08:32.694Z,98795.78
2022-11-17T19:11:04.708Z,98796.03
2022-11-17T19:13:33.477Z,98794.63
2022-11-17T19:16:04.549Z,98792.16
2022-11-17T19:18:30.898Z,98798.28
2022-11-17T19:21:07.464Z,98793.25
2022-11-17T19:23:38.141Z,98800.28
2022-11-17T19:26:08.562Z,98805.69
2022-11-17T19:28:35.523Z,98807.84
2022-11-17T19:31:03.573Z,98811.34
2022-11-17T19:33:30.825Z,98808.41
2022-11-17T19:35:57.368Z,98812.75
2022-11-17T19:38:23.834Z,98817.69
2022-11-17T19:40:50.158Z,98819.00
2022-11-17T19:43:19.124Z,98821.47
2022-11-17T19:45:45.487Z,98826.50
2022-11-17T19:48:11.904Z,98824.66
2022-11-17T19:50:38.249Z,98825.25
2022-11-17T19:53:04.566Z,98833.94
2022-11-17T19:55:32.995Z,98837.09
2022-11-17T19:57:59.521Z,98838.06
2022-11-17T20:00:25.869Z,98846.41
2022-11-17T20:02:52.280Z,98843.34
2022-11-17T20:05:18.765Z,98845.72
2022-11-17T20:07:45.137Z,98843.59
2022-11-17T20:10:11.518Z,98852.16
2022-11-17T20:12:37.973Z,98862.44
2022-11-17T20:15:04.398Z,98858.19
2022-11-17T20:17:30.758Z,98860.28
2022-11-17T20:19:57.166Z,98863.47
2022-11-17T20:22:23.573Z,98871.59
2022-11-17T20:24:49.916Z,98868.06
2022-11-17T20:27:16.247Z,98871.94
2022-11-17T20:29:42.732Z,98874.03
2022-11-17T20:32:09.141Z,98875.81
2022-11-17T20:34:35.469Z,98878.28
2022-11-17T20:37:01.874Z,98883.69
2022-11-17T20:39:28.229Z,98890.50
2022-11-17T20:41:54.644Z,98897.44
2022-11-17T20:44:24.291Z,98896.16
2022-11-17T20:46:55.342Z,98900.03
2022-11-17T20:49:22.109Z,98904.38
2022-11-17T20:51:48.601Z,98911.66
2022-11-17T20:54:14.962Z,98917.31
2022-11-17T20:56:41.556Z,98916.84
2022-11-17T20:59:08.073Z,98918.28
2022-11-17T21:01:34.449Z,98929.31
2022-11-17T21:04:00.819Z,98922.25
2022-11-17T21:06:27.846Z,98924.25
2022-11-17T21:08:54.205Z,98920.34
2022-11-17T21:11:40.913Z,98926.81
2022-11-17T21:14:08.165Z,98938.06
2022-11-17T21:16:34.712Z,98928.78
2022-11-17T21:19:01.069Z,98939.22
2022-11-17T21:21:27.615Z,98931.69
2022-11-17T21:23:54.566Z,98941.28
2022-11-17T21:26:22.784Z,98945.50
2022-11-17T21:28:49.262Z,98944.19
2022-11-17T21:31:23.515Z,98943.34
2022-11-17T21:33:54.669Z,98957.94
2022-11-17T21:36:22.269Z,98949.44
2022-11-17T21:38:48.693Z,98956.94
2022-11-17T21:41:19.178Z,98943.69
2022-11-17T21:43:46.794Z,98948.72
2022-11-17T21:46:14.482Z,98950.81
2022-11-17T21:48:41.102Z,98939.41
2022-11-17T21:51:13.418Z,98938.81
2022-11-17T21:53:39.752Z,98934.25
2022-11-17T21:56:07.571Z,98945.84
2022-11-17T21:58:34.198Z,98939.25
2022-11-17T22:01:14.952Z,98952.03
2022-11-17T22:03:41.979Z,98960.22
2022-11-17T22:06:09.485Z,98957.75
2022-11-17T22:08:36.502Z,98958.94
2022-11-17T22:11:03.646Z,98966.44
2022-11-17T22:13:29.949Z,98973.50
2022-11-17T22:15:56.305Z,98971.38
2022-11-17T22:18:22.662Z,98965.47
2022-11-17T22:20:52.010Z,98964.06
2022-11-17T22:23:18.513Z,98967.81
2022-11-17T22:25:52.005Z,98978.84
2022-11-17T22:28:18.352Z,98980.59
2022-11-17T22:30:44.664Z,98979.34
2022-11-17T22:33:11.121Z,98984.31
2022-11-17T22:35:38.434Z,98987.97
2022-11-17T22:38:04.825Z,98986.56
2022-11-17T22:40:31.230Z,98989.41
2022-11-17T22:42:59.998Z,98986.84
2022-11-17T22:45:29.925Z,98976.63
2022-11-17T22:47:56.233Z,98987.44
2022-11-17T22:50:22.657Z,98998.13
2022-11-17T22:52:49.054Z,98989.34
2022-11-17T22:55:15.391Z,98992.03
2022-11-17T22:57:41.718Z,98999.44
2022-11-17T23:00:08.364Z,98991.09
2022-11-17T23:02:34.690Z,98995.25
2022-11-17T23:05:01.302Z,98992.16
2022-11-17T23:07:27.701Z,98997.34
2022-11-17T23:09:54.108Z,99000.28
2022-11-17T23:12:20.381Z,99003.59
2022-11-17T23:14:46.725Z,99004.78
2022-11-17T23:17:13.070Z,99004.63
2022-11-17T23:19:39.420Z,99006.06
2022-11-17T23:22:05.707Z,99013.09
2022-11-17T23:24:32.223Z,99023.06
2022-11-17T23:26:58.558Z,99026.44
2022-11-17T23:29:24.838Z,99032.00
2022-11-17T23:31:51.164Z,99033.44
2022-11-17T23:34:17.562Z,99033.66
2022-11-17T23:36:43.885Z,99033.44
2022-11-17T23:39:10.386Z,99036.53
2022-11-17T23:41:37.072Z,99031.56
2022-11-17T23:44:03.743Z,99031.34
2022-11-17T23:46:30.283Z,99028.88
2022-11-17T23:48:57.306Z,99028.88
2022-11-17T23:51:24.626Z,99028.25
2022-11-17T23:53:50.990Z,99029.66
2022-11-17T23:56:18.882Z,99032.84
2022-11-17T23:58:45.197Z,99038.00
